createdAt,value
2017-04-13T00:00:45.288Z,0
2017-04-13T00:01:33.487Z,0
2017-04-13T00:02:21.359Z,0
2017-04-13T00:03:15.384Z,0
2017-04-13T00:04:09.441Z,0
2017-04-13T00:04:58.415Z,0
2017-04-13T00:05:52.452Z,0
2017-04-13T00:06:41.600Z,0
2017-04-13T00:07:29.586Z,0
2017-04-13T00:08:24.566Z,0
2017-04-13T00:09:12.638Z,0
2017-04-13T00:10:00.627Z,0
2017-04-13T00:10:49.750Z,0
2017-04-13T00:11:38.791Z,0
2017-04-13T00:12:26.824Z,0
2017-04-13T00:13:20.854Z,0
2017-04-13T00:14:15.915Z,0
2017-04-13T00:15:09.913Z,0
2017-04-13T00:16:04.998Z,0
2017-04-13T00:16:58.986Z,0
2017-04-13T00:17:48.048Z,0
2017-04-13T00:18:36.061Z,0
2017-04-13T00:19:25.187Z,0
2017-04-13T00:20:20.673Z,0
2017-04-13T00:21:14.137Z,0
2017-04-13T00:22:02.194Z,0
2017-04-13T00:22:56.205Z,0
2017-04-13T00:23:45.279Z,0
2017-04-13T00:24:33.262Z,0
2017-04-13T00:25:27.374Z,0
2017-04-13T00:26:21.387Z,0
2017-04-13T00:27:10.373Z,0
2017-04-13T00:28:04.473Z,0
2017-04-13T00:28:52.487Z,0
2017-04-13T00:29:40.504Z,0
2017-04-13T00:30:28.585Z,0
2017-04-13T00:31:22.593Z,0
2017-04-13T00:32:16.629Z,0
2017-04-13T00:33:16.909Z,0
2017-04-13T00:34:10.701Z,0
2017-04-13T00:34:59.732Z,0
2017-04-13T00:35:54.735Z,0
2017-04-13T00:36:42.809Z,0
2017-04-13T00:37:30.787Z,0
2017-04-13T00:38:30.913Z,0
2017-04-13T00:39:24.901Z,0
2017-04-13T00:40:20.485Z,0
2017-04-13T00:41:13.967Z,0
2017-04-13T00:42:07.995Z,0
2017-04-13T00:43:02.018Z,0
2017-04-13T00:43:56.086Z,0
2017-04-13T00:44:45.144Z,0
2017-04-13T00:45:39.177Z,0
2017-04-13T00:46:33.148Z,0
2017-04-13T00:47:27.232Z,0
2017-04-13T00:48:21.274Z,0
2017-04-13T00:49:15.349Z,0
2017-04-13T00:50:04.322Z,0
2017-04-13T00:50:59.365Z,0
2017-04-13T00:51:48.398Z,0
2017-04-13T00:52:42.590Z,0
2017-04-13T00:53:31.497Z,0
2017-04-13T00:54:20.587Z,0
2017-04-13T00:55:09.555Z,0
2017-04-13T00:56:09.563Z,0
2017-04-13T00:56:58.560Z,0
2017-04-13T00:57:52.666Z,0
2017-04-13T00:58:46.659Z,0
2017-04-13T00:59:35.957Z,0
2017-04-13T01:00:30.839Z,0
2017-04-13T01:01:24.832Z,0
2017-04-13T01:02:12.874Z,0
2017-04-13T01:03:01.895Z,0
2017-04-13T01:03:56.913Z,0
2017-04-13T01:04:46.095Z,0
2017-04-13T01:05:39.971Z,0
2017-04-13T01:06:28.980Z,0
2017-04-13T01:07:17.079Z,0
2017-04-13T01:08:05.172Z,0
2017-04-13T01:08:54.114Z,0
2017-04-13T01:09:43.186Z,0
2017-04-13T01:10:32.211Z,0
2017-04-13T01:11:21.251Z,0
2017-04-13T01:12:16.285Z,0
2017-04-13T01:13:04.324Z,0
2017-04-13T01:13:53.390Z,0
2017-04-13T01:14:42.398Z,0
2017-04-13T01:15:30.405Z,0
2017-04-13T01:16:19.529Z,0
2017-04-13T01:17:08.528Z,0
2017-04-13T01:17:56.593Z,0
2017-04-13T01:18:51.631Z,0
2017-04-13T01:19:45.604Z,0
2017-04-13T01:20:33.712Z,0
2017-04-13T01:21:27.765Z,0
2017-04-13T01:22:15.735Z,0
2017-04-13T01:23:03.868Z,0
2017-04-13T01:23:51.845Z,0
2017-04-13T01:24:45.863Z,0
2017-04-13T01:25:33.879Z,0
2017-04-13T01:26:22.928Z,0
2017-04-13T01:27:11.320Z,0
2017-04-13T01:28:05.020Z,0
2017-04-13T01:28:53.058Z,0
2017-04-13T01:29:47.123Z,0
2017-04-13T01:30:35.091Z,0
2017-04-13T01:31:24.182Z,0
2017-04-13T01:32:12.202Z,0
2017-04-13T01:33:06.193Z,0
2017-04-13T01:33:55.271Z,0
2017-04-13T01:34:55.301Z,0
2017-04-13T01:35:49.289Z,0
2017-04-13T01:36:38.392Z,0
2017-04-13T01:37:32.558Z,0
2017-04-13T01:38:21.417Z,0
2017-04-13T01:39:09.501Z,0
2017-04-13T01:39:58.518Z,0
2017-04-13T01:40:46.584Z,0
2017-04-13T01:41:34.597Z,0
2017-04-13T01:42:22.625Z,0
2017-04-13T01:43:23.664Z,0
2017-04-13T01:44:24.651Z,0
2017-04-13T01:45:13.708Z,0
2017-04-13T01:46:02.756Z,0
2017-04-13T01:46:50.792Z,0
2017-04-13T01:47:44.820Z,0
2017-04-13T01:48:38.853Z,0
2017-04-13T01:49:26.900Z,0
2017-04-13T01:50:21.575Z,0
2017-04-13T01:51:08.981Z,0
2017-04-13T01:52:03.002Z,0
2017-04-13T01:52:52.058Z,0
2017-04-13T01:53:40.172Z,0
2017-04-13T01:54:29.128Z,0
2017-04-13T01:55:17.318Z,0
2017-04-13T01:56:12.194Z,0
2017-04-13T01:57:12.180Z,0
2017-04-13T01:58:07.306Z,0
2017-04-13T01:58:56.309Z,0
2017-04-13T01:59:45.328Z,0
2017-04-13T02:00:39.362Z,0
2017-04-13T02:01:33.373Z,0
2017-04-13T02:02:28.415Z,0
2017-04-13T02:03:22.440Z,0
2017-04-13T02:04:10.469Z,0
2017-04-13T02:04:58.538Z,0
2017-04-13T02:05:52.629Z,0
2017-04-13T02:06:41.594Z,0
2017-04-13T02:07:41.672Z,0
2017-04-13T02:08:29.677Z,0
2017-04-13T02:09:18.779Z,0
2017-04-13T02:10:12.840Z,0
2017-04-13T02:11:06.770Z,0
2017-04-13T02:12:01.838Z,0
2017-04-13T02:12:56.813Z,0
2017-04-13T02:13:50.883Z,0
2017-04-13T02:14:45.007Z,0
2017-04-13T02:15:33.982Z,0
2017-04-13T02:16:33.974Z,0
2017-04-13T02:17:27.990Z,0
2017-04-13T02:18:23.059Z,0
2017-04-13T02:19:12.111Z,0
2017-04-13T02:20:01.594Z,0
2017-04-13T02:20:49.193Z,0
2017-04-13T02:21:43.190Z,0
2017-04-13T02:22:32.278Z,0
2017-04-13T02:23:26.284Z,0
2017-04-13T02:24:20.327Z,0
2017-04-13T02:25:14.390Z,0
2017-04-13T02:26:03.419Z,0
2017-04-13T02:26:51.418Z,0
2017-04-13T02:27:45.499Z,0
2017-04-13T02:28:33.488Z,0
2017-04-13T02:29:27.465Z,0
2017-04-13T02:30:22.032Z,0
2017-04-13T02:31:15.594Z,0
2017-04-13T02:32:04.676Z,0
2017-04-13T02:33:04.675Z,0
2017-04-13T02:33:53.672Z,0
2017-04-13T02:34:47.692Z,0
2017-04-13T02:35:41.768Z,0
2017-04-13T02:36:41.807Z,0
2017-04-13T02:37:30.801Z,0
2017-04-13T02:38:19.855Z,0
2017-04-13T02:39:14.013Z,0
2017-04-13T02:40:02.954Z,0
2017-04-13T02:40:52.044Z,0
2017-04-13T02:41:46.007Z,0
2017-04-13T02:42:34.060Z,0
2017-04-13T02:43:34.103Z,0
2017-04-13T02:44:22.094Z,0
2017-04-13T02:45:10.186Z,0
2017-04-13T02:46:04.241Z,0
2017-04-13T02:46:52.175Z,0
2017-04-13T02:47:46.286Z,0
2017-04-13T02:48:40.311Z,0
2017-04-13T02:49:34.314Z,0
2017-04-13T02:50:29.415Z,0
2017-04-13T02:51:17.456Z,0
2017-04-13T02:52:06.431Z,0
2017-04-13T02:53:00.477Z,0
2017-04-13T02:54:00.460Z,0
2017-04-13T02:54:54.639Z,0
2017-04-13T02:55:48.584Z,0
2017-04-13T02:56:42.671Z,0
2017-04-13T02:57:37.696Z,0
2017-04-13T02:58:31.691Z,0
2017-04-13T02:59:25.724Z,0
2017-04-13T03:00:13.770Z,0
2017-04-13T03:01:07.774Z,0
2017-04-13T03:02:07.800Z,0
2017-04-13T03:02:55.869Z,0
2017-04-13T03:03:56.897Z,0
2017-04-13T03:04:50.898Z,0
2017-04-13T03:05:50.927Z,0
2017-04-13T03:06:45.990Z,0
2017-04-13T03:07:46.072Z,0
2017-04-13T03:08:34.057Z,0
2017-04-13T03:09:23.068Z,0
2017-04-13T03:10:24.608Z,0
2017-04-13T03:11:18.148Z,0
2017-04-13T03:12:13.145Z,0
2017-04-13T03:13:07.265Z,0
2017-04-13T03:14:01.169Z,0
2017-04-13T03:14:55.282Z,0
2017-04-13T03:15:44.293Z,0
2017-04-13T03:16:33.318Z,0
2017-04-13T03:17:22.420Z,0
2017-04-13T03:18:22.370Z,0
2017-04-13T03:19:16.443Z,0
2017-04-13T03:20:10.465Z,0
2017-04-13T03:21:04.471Z,0
2017-04-13T03:21:58.563Z,0
2017-04-13T03:22:47.562Z,0
2017-04-13T03:23:41.619Z,0
2017-04-13T03:24:36.691Z,0
2017-04-13T03:25:36.684Z,0
2017-04-13T03:26:30.723Z,0
2017-04-13T03:27:30.702Z,0
2017-04-13T03:28:25.775Z,0
2017-04-13T03:29:14.984Z,0
2017-04-13T03:30:09.803Z,0
2017-04-13T03:30:58.879Z,0
2017-04-13T03:31:47.931Z,0
2017-04-13T03:32:42.896Z,0
2017-04-13T03:33:31.941Z,0
2017-04-13T03:34:26.997Z,0
2017-04-13T03:35:16.114Z,0
2017-04-13T03:36:10.071Z,0
2017-04-13T03:36:59.098Z,0
2017-04-13T03:37:48.186Z,0
2017-04-13T03:38:48.162Z,0
2017-04-13T03:39:37.224Z,0
2017-04-13T03:40:25.797Z,0
2017-04-13T03:41:20.321Z,0
2017-04-13T03:42:09.343Z,0
2017-04-13T03:42:58.396Z,0
2017-04-13T03:43:47.398Z,0
2017-04-13T03:44:36.548Z,0
2017-04-13T03:45:30.489Z,0
2017-04-13T03:46:24.528Z,0
2017-04-13T03:47:24.516Z,0
2017-04-13T03:48:12.582Z,0
2017-04-13T03:49:01.595Z,0
2017-04-13T03:50:01.669Z,0
2017-04-13T03:50:50.677Z,0
2017-04-13T03:51:39.702Z,0
2017-04-13T03:52:27.748Z,0
2017-04-13T03:53:21.824Z,0
2017-04-13T03:54:15.760Z,0
2017-04-13T03:55:04.849Z,0
2017-04-13T03:55:58.859Z,0
2017-04-13T03:56:47.928Z,0
2017-04-13T03:57:41.972Z,0
2017-04-13T03:58:41.979Z,0
2017-04-13T03:59:42.007Z,0
2017-04-13T04:00:31.077Z,0
2017-04-13T04:01:26.109Z,0
2017-04-13T04:02:14.244Z,0
2017-04-13T04:03:02.170Z,4
2017-04-13T04:03:51.226Z,4
2017-04-13T04:04:45.457Z,4
2017-04-13T04:05:34.300Z,0
2017-04-13T04:06:22.303Z,0
2017-04-13T04:07:10.385Z,4
2017-04-13T04:07:59.393Z,4
2017-04-13T04:08:47.462Z,4
2017-04-13T04:09:35.468Z,4
2017-04-13T04:10:30.519Z,4
2017-04-13T04:11:30.580Z,4
2017-04-13T04:12:24.599Z,8
2017-04-13T04:13:24.606Z,12
2017-04-13T04:14:19.646Z,12
2017-04-13T04:15:14.721Z,12
2017-04-13T04:16:15.701Z,12
2017-04-13T04:17:16.694Z,12
2017-04-13T04:18:05.776Z,16
2017-04-13T04:18:59.790Z,20
2017-04-13T04:19:59.815Z,24
2017-04-13T04:20:54.882Z,24
2017-04-13T04:22:00.880Z,28
2017-04-13T04:22:48.900Z,36
2017-04-13T04:23:48.939Z,44
2017-04-13T04:24:38.031Z,48
2017-04-13T04:25:26.025Z,60
2017-04-13T04:26:20.069Z,64
2017-04-13T04:27:08.123Z,76
2017-04-13T04:28:03.089Z,88
2017-04-13T04:28:57.163Z,100
2017-04-13T04:29:45.441Z,112
2017-04-13T04:30:39.237Z,124
2017-04-13T04:31:27.254Z,140
2017-04-13T04:32:16.461Z,152
2017-04-13T04:33:16.539Z,168
2017-04-13T04:34:05.379Z,180
2017-04-13T04:34:54.495Z,200
2017-04-13T04:35:48.466Z,220
2017-04-13T04:36:48.517Z,240
2017-04-13T04:37:42.544Z,256
2017-04-13T04:38:37.589Z,276
2017-04-13T04:39:31.583Z,300
2017-04-13T04:40:20.659Z,316
2017-04-13T04:41:21.689Z,344
2017-04-13T04:42:10.701Z,364
2017-04-13T04:42:58.821Z,392
2017-04-13T04:43:52.780Z,420
2017-04-13T04:44:47.797Z,452
2017-04-13T04:45:47.874Z,488
2017-04-13T04:46:41.922Z,520
2017-04-13T04:47:29.898Z,548
2017-04-13T04:48:18.965Z,588
2017-04-13T04:49:14.008Z,628
2017-04-13T04:50:08.051Z,668
2017-04-13T04:50:56.096Z,720
2017-04-13T04:51:45.074Z,764
2017-04-13T04:52:34.088Z,828
2017-04-13T04:53:23.137Z,876
2017-04-13T04:54:23.212Z,928
2017-04-13T04:55:12.230Z,976
2017-04-13T04:56:06.283Z,1052
2017-04-13T04:56:55.358Z,1096
2017-04-13T04:57:56.319Z,1164
2017-04-13T04:58:45.374Z,1204
2017-04-13T04:59:33.437Z,1256
2017-04-13T05:00:22.540Z,1304
2017-04-13T05:01:11.522Z,1328
2017-04-13T05:01:59.579Z,1380
2017-04-13T05:02:53.648Z,1432
2017-04-13T05:03:47.615Z,1472
2017-04-13T05:04:36.749Z,1540
2017-04-13T05:05:30.765Z,1572
2017-04-13T05:06:30.764Z,1656
2017-04-13T05:07:24.758Z,1768
2017-04-13T05:08:13.803Z,1824
2017-04-13T05:09:08.766Z,1908
2017-04-13T05:10:02.926Z,1944
2017-04-13T05:10:56.889Z,1976
2017-04-13T05:11:45.970Z,2040
2017-04-13T05:12:35.014Z,2072
2017-04-13T05:13:30.051Z,2176
2017-04-13T05:14:19.080Z,2308
2017-04-13T05:15:13.131Z,2348
2017-04-13T05:16:01.126Z,2404
2017-04-13T05:17:01.326Z,2476
2017-04-13T05:17:56.177Z,2532
2017-04-13T05:18:45.202Z,2652
2017-04-13T05:19:34.268Z,2712
2017-04-13T05:20:22.345Z,2820
2017-04-13T05:21:16.322Z,2884
2017-04-13T05:22:04.458Z,2944
2017-04-13T05:23:04.392Z,3084
2017-04-13T05:23:58.492Z,3152
2017-04-13T05:24:58.534Z,3184
2017-04-13T05:25:52.491Z,3276
2017-04-13T05:26:47.550Z,3324
2017-04-13T05:27:47.575Z,3460
2017-04-13T05:28:35.624Z,3604
2017-04-13T05:29:29.741Z,3692
2017-04-13T05:30:17.678Z,3748
2017-04-13T05:31:17.700Z,3908
2017-04-13T05:32:12.753Z,4020
2017-04-13T05:33:07.856Z,4008
2017-04-13T05:33:55.832Z,4052
2017-04-13T05:34:50.899Z,4156
2017-04-13T05:35:39.944Z,4240
2017-04-13T05:36:28.027Z,4292
2017-04-13T05:37:16.988Z,4312
2017-04-13T05:38:11.090Z,4256
2017-04-13T05:39:11.093Z,4304
2017-04-13T05:40:05.141Z,4420
2017-04-13T05:40:54.348Z,4436
2017-04-13T05:41:48.167Z,4476
2017-04-13T05:42:42.160Z,4532
2017-04-13T05:43:37.232Z,4848
2017-04-13T05:44:32.311Z,5088
2017-04-13T05:45:26.304Z,5516
2017-04-13T05:46:20.304Z,5840
2017-04-13T05:47:08.391Z,5700
2017-04-13T05:48:02.446Z,5672
2017-04-13T05:48:56.457Z,5800
2017-04-13T05:49:51.472Z,5828
2017-04-13T05:50:45.486Z,5788
2017-04-13T05:51:39.567Z,5740
2017-04-13T05:52:27.541Z,5620
2017-04-13T05:53:27.621Z,5272
2017-04-13T05:54:15.741Z,4592
2017-04-13T05:55:04.684Z,4380
2017-04-13T05:55:52.760Z,4340
2017-04-13T05:56:40.800Z,4748
2017-04-13T05:57:29.860Z,5004
2017-04-13T05:58:23.866Z,4672
2017-04-13T05:59:17.892Z,5208
2017-04-13T06:00:07.220Z,5820
2017-04-13T06:00:56.103Z,6004
2017-04-13T06:01:50.063Z,6476
2017-04-13T06:02:39.183Z,6664
2017-04-13T06:03:28.099Z,6724
2017-04-13T06:04:16.183Z,6612
2017-04-13T06:05:11.183Z,6596
2017-04-13T06:05:59.481Z,6768
2017-04-13T06:06:53.243Z,6336
2017-04-13T06:07:53.340Z,6296
2017-04-13T06:08:41.431Z,6592
2017-04-13T06:09:35.402Z,6908
2017-04-13T06:10:24.498Z,7512
2017-04-13T06:11:18.415Z,8780
2017-04-13T06:12:06.504Z,9396
2017-04-13T06:12:55.602Z,9816
2017-04-13T06:13:44.566Z,9852
2017-04-13T06:14:38.592Z,10200
2017-04-13T06:15:33.699Z,10156
2017-04-13T06:16:22.688Z,9912
2017-04-13T06:17:10.703Z,9724
2017-04-13T06:17:59.793Z,9736
2017-04-13T06:18:53.800Z,10032
2017-04-13T06:19:47.837Z,10432
2017-04-13T06:20:36.886Z,10836
2017-04-13T06:21:24.919Z,10420
2017-04-13T06:22:14.014Z,10208
2017-04-13T06:23:03.036Z,10460
2017-04-13T06:23:58.089Z,10680
2017-04-13T06:24:46.641Z,10784
2017-04-13T06:25:34.165Z,10880
2017-04-13T06:26:22.288Z,10848
2017-04-13T06:27:11.240Z,10852
2017-04-13T06:28:06.337Z,10632
2017-04-13T06:29:12.321Z,10472
2017-04-13T06:30:00.343Z,10932
2017-04-13T06:30:49.378Z,11236
2017-04-13T06:31:37.430Z,11164
2017-04-13T06:32:26.468Z,10600
2017-04-13T06:33:20.516Z,10008
2017-04-13T06:34:09.518Z,9640
2017-04-13T06:35:03.598Z,10376
2017-04-13T06:35:58.588Z,11468
2017-04-13T06:36:46.687Z,12060
2017-04-13T06:37:40.699Z,11612
2017-04-13T06:38:29.728Z,11476
2017-04-13T06:39:17.792Z,11712
2017-04-13T06:40:11.796Z,11848
2017-04-13T06:41:00.846Z,11548
2017-04-13T06:41:54.986Z,10820
2017-04-13T06:42:48.938Z,10952
2017-04-13T06:43:38.044Z,11080
2017-04-13T06:44:25.968Z,11232
2017-04-13T06:45:26.072Z,11440
2017-04-13T06:46:21.054Z,11800
2017-04-13T06:47:16.141Z,11504
2017-04-13T06:48:11.200Z,11520
2017-04-13T06:49:05.214Z,11052
2017-04-13T06:49:54.263Z,11840
2017-04-13T06:50:42.282Z,11904
2017-04-13T06:51:31.360Z,11828
2017-04-13T06:52:32.443Z,11168
2017-04-13T06:53:26.416Z,11196
2017-04-13T06:54:27.428Z,12244
2017-04-13T06:55:21.461Z,11752
2017-04-13T06:56:15.514Z,12176
2017-04-13T06:57:09.520Z,11876
2017-04-13T06:57:57.646Z,11564
2017-04-13T06:58:51.646Z,12244
2017-04-13T06:59:46.096Z,12032
2017-04-13T07:00:40.681Z,12304
2017-04-13T07:01:34.747Z,12608
2017-04-13T07:02:28.817Z,11528
2017-04-13T07:03:22.839Z,11568
2017-04-13T07:04:16.876Z,13220
2017-04-13T07:05:05.952Z,13544
2017-04-13T07:05:53.985Z,13528
2017-04-13T07:06:42.974Z,13040
2017-04-13T07:07:37.020Z,13472
2017-04-13T07:08:25.093Z,13600
2017-04-13T07:09:20.124Z,13852
2017-04-13T07:10:15.185Z,14312
2017-04-13T07:11:10.232Z,14068
2017-04-13T07:11:59.254Z,14420
2017-04-13T07:12:47.332Z,14056
2017-04-13T07:13:41.379Z,14040
2017-04-13T07:14:35.342Z,13432
2017-04-13T07:15:30.414Z,12464
2017-04-13T07:16:19.455Z,12292
2017-04-13T07:17:07.495Z,13132
2017-04-13T07:17:56.494Z,13236
2017-04-13T07:18:50.585Z,13836
2017-04-13T07:19:38.623Z,15228
2017-04-13T07:20:32.704Z,15792
2017-04-13T07:21:26.718Z,15136
2017-04-13T07:22:15.683Z,14752
2017-04-13T07:23:04.792Z,15332
2017-04-13T07:23:53.781Z,14808
2017-04-13T07:24:48.166Z,13644
2017-04-13T07:25:42.865Z,11988
2017-04-13T07:26:36.986Z,12288
2017-04-13T07:27:37.006Z,12004
2017-04-13T07:28:26.066Z,12000
2017-04-13T07:29:15.150Z,12464
2017-04-13T07:30:04.097Z,11592
2017-04-13T07:30:59.118Z,13756
2017-04-13T07:31:53.215Z,14620
2017-04-13T07:32:47.193Z,13400
2017-04-13T07:33:41.252Z,14844
2017-04-13T07:34:35.323Z,14972
2017-04-13T07:35:29.397Z,14352
2017-04-13T07:36:23.409Z,13540
2017-04-13T07:37:23.376Z,13076
2017-04-13T07:38:11.477Z,12312
2017-04-13T07:39:00.508Z,12404
2017-04-13T07:39:48.498Z,13036
2017-04-13T07:40:37.601Z,12732
2017-04-13T07:41:31.596Z,11388
2017-04-13T07:42:26.647Z,11548
2017-04-13T07:43:14.710Z,12992
2017-04-13T07:44:08.778Z,14664
2017-04-13T07:45:02.878Z,14548
2017-04-13T07:45:56.837Z,14504
2017-04-13T07:46:45.849Z,13436
2017-04-13T07:47:33.942Z,11900
2017-04-13T07:48:23.037Z,11460
2017-04-13T07:49:11.991Z,11300
2017-04-13T07:50:07.019Z,11716
2017-04-13T07:51:01.065Z,13524
2017-04-13T07:51:50.144Z,13764
2017-04-13T07:52:38.151Z,12864
2017-04-13T07:53:33.236Z,13020
2017-04-13T07:54:22.261Z,14256
2017-04-13T07:55:16.281Z,12860
2017-04-13T07:56:05.328Z,12716
2017-04-13T07:56:59.478Z,13192
2017-04-13T07:57:53.394Z,13984
2017-04-13T07:58:48.429Z,14060
2017-04-13T07:59:37.503Z,13196
2017-04-13T08:00:31.514Z,13816
2017-04-13T08:01:20.602Z,15128
2017-04-13T08:02:09.621Z,16608
2017-04-13T08:02:58.714Z,15808
2017-04-13T08:03:46.699Z,14616
2017-04-13T08:04:40.797Z,14692
2017-04-13T08:05:29.799Z,15720
2017-04-13T08:06:23.789Z,14196
2017-04-13T08:07:12.886Z,13128
2017-04-13T08:08:06.908Z,15584
2017-04-13T08:09:00.983Z,16896
2017-04-13T08:09:50.116Z,16672
2017-04-13T08:10:39.065Z,17376
2017-04-13T08:11:28.101Z,17024
2017-04-13T08:12:17.129Z,17440
2017-04-13T08:13:11.245Z,16120
2017-04-13T08:14:06.176Z,17056
2017-04-13T08:15:00.248Z,18688
2017-04-13T08:15:49.291Z,19040
2017-04-13T08:16:44.297Z,19072
2017-04-13T08:17:38.364Z,17408
2017-04-13T08:18:27.372Z,16088
2017-04-13T08:19:16.509Z,14164
2017-04-13T08:20:16.512Z,14724
2017-04-13T08:21:04.527Z,17504
2017-04-13T08:21:59.569Z,22464
2017-04-13T08:22:48.626Z,24608
2017-04-13T08:23:37.755Z,23552
2017-04-13T08:24:25.704Z,22464
2017-04-13T08:25:14.745Z,22752
2017-04-13T08:26:03.839Z,23040
2017-04-13T08:26:58.840Z,22368
2017-04-13T08:27:47.915Z,22880
2017-04-13T08:28:36.916Z,23360
2017-04-13T08:29:31.984Z,23008
2017-04-13T08:30:32.002Z,24512
2017-04-13T08:31:20.036Z,26368
2017-04-13T08:32:08.083Z,26784
2017-04-13T08:33:02.165Z,25568
2017-04-13T08:33:50.273Z,26112
2017-04-13T08:34:44.213Z,28288
2017-04-13T08:35:44.259Z,28640
2017-04-13T08:36:33.315Z,27840
2017-04-13T08:37:28.293Z,28288
2017-04-13T08:38:22.462Z,27008
2017-04-13T08:39:10.431Z,27552
2017-04-13T08:39:59.529Z,28704
2017-04-13T08:40:53.500Z,29440
2017-04-13T08:41:47.606Z,28832
2017-04-13T08:42:36.612Z,29856
2017-04-13T08:43:30.661Z,27936
2017-04-13T08:44:25.737Z,25792
2017-04-13T08:45:13.740Z,29024
2017-04-13T08:46:02.851Z,31360
2017-04-13T08:46:56.813Z,45440
2017-04-13T08:47:51.882Z,29312
2017-04-13T08:48:46.093Z,27648
2017-04-13T08:49:39.968Z,28928
2017-04-13T08:50:28.967Z,32352
2017-04-13T08:51:18.084Z,36544
2017-04-13T08:52:06.089Z,41440
2017-04-13T08:53:00.149Z,33952
2017-04-13T08:53:54.223Z,27264
2017-04-13T08:54:42.330Z,25856
2017-04-13T08:55:36.282Z,25728
2017-04-13T08:56:24.306Z,26880
2017-04-13T08:57:18.387Z,27616
2017-04-13T08:58:06.431Z,27168
2017-04-13T08:58:54.560Z,27616
2017-04-13T08:59:48.982Z,29312
2017-04-13T09:00:36.576Z,28288
2017-04-13T09:01:25.606Z,30624
2017-04-13T09:02:20.753Z,34464
2017-04-13T09:03:09.688Z,33824
2017-04-13T09:04:04.763Z,33984
2017-04-13T09:04:53.821Z,36608
2017-04-13T09:05:47.841Z,37120
2017-04-13T09:06:41.891Z,39072
2017-04-13T09:07:35.869Z,34560
2017-04-13T09:08:25.002Z,37696
2017-04-13T09:09:14.031Z,29344
2017-04-13T09:10:14.101Z,27616
2017-04-13T09:11:02.085Z,26336
2017-04-13T09:12:02.431Z,25696
2017-04-13T09:12:56.189Z,26368
2017-04-13T09:13:45.179Z,26752
2017-04-13T09:14:34.285Z,26720
2017-04-13T09:15:29.290Z,25408
2017-04-13T09:16:17.443Z,25568
2017-04-13T09:17:06.680Z,25984
2017-04-13T09:17:55.481Z,25600
2017-04-13T09:18:50.501Z,23936
2017-04-13T09:19:39.527Z,23008
2017-04-13T09:20:33.610Z,23904
2017-04-13T09:21:27.654Z,24448
2017-04-13T09:22:15.675Z,25888
2017-04-13T09:23:04.713Z,27136
2017-04-13T09:23:53.794Z,26112
2017-04-13T09:24:42.845Z,25056
2017-04-13T09:25:36.898Z,28160
2017-04-13T09:26:30.931Z,31264
2017-04-13T09:27:25.978Z,29824
2017-04-13T09:28:20.010Z,27136
2017-04-13T09:29:14.132Z,26624
2017-04-13T09:30:08.079Z,26816
2017-04-13T09:31:02.176Z,27456
2017-04-13T09:31:50.218Z,28224
2017-04-13T09:32:38.196Z,27904
2017-04-13T09:33:32.249Z,25312
2017-04-13T09:34:21.366Z,22016
2017-04-13T09:35:10.371Z,20384
2017-04-13T09:36:04.415Z,20960
2017-04-13T09:36:53.475Z,21024
2017-04-13T09:37:47.532Z,21504
2017-04-13T09:38:35.581Z,21184
2017-04-13T09:39:35.629Z,20896
2017-04-13T09:40:29.694Z,21568
2017-04-13T09:41:18.696Z,21920
2017-04-13T09:42:07.697Z,23008
2017-04-13T09:42:56.798Z,24384
2017-04-13T09:43:56.828Z,24192
2017-04-13T09:44:51.836Z,22368
2017-04-13T09:45:40.916Z,19904
2017-04-13T09:46:29.011Z,17504
2017-04-13T09:47:23.004Z,16640
2017-04-13T09:48:17.060Z,16192
2017-04-13T09:49:17.105Z,16096
2017-04-13T09:50:11.152Z,14892
2017-04-13T09:51:11.187Z,15388
2017-04-13T09:52:00.197Z,17344
2017-04-13T09:52:48.264Z,19744
2017-04-13T09:53:37.338Z,20000
2017-04-13T09:54:26.398Z,17152
2017-04-13T09:55:20.921Z,14772
2017-04-13T09:56:09.430Z,13952
2017-04-13T09:56:57.477Z,14652
2017-04-13T09:57:46.578Z,14636
2017-04-13T09:58:41.606Z,13876
2017-04-13T09:59:35.663Z,13748
2017-04-13T10:00:29.697Z,15016
2017-04-13T10:01:17.742Z,17280
2017-04-13T10:02:06.775Z,20256
2017-04-13T10:02:55.809Z,23520
2017-04-13T10:03:44.851Z,27584
2017-04-13T10:04:32.890Z,32480
2017-04-13T10:05:26.989Z,34720
2017-04-13T10:06:15.029Z,34976
2017-04-13T10:07:10.067Z,34336
2017-04-13T10:07:59.057Z,30240
2017-04-13T10:08:47.351Z,24864
2017-04-13T10:09:36.201Z,20416
2017-04-13T10:10:25.253Z,14692
2017-04-13T10:11:19.231Z,11068
2017-04-13T10:12:07.296Z,9552
2017-04-13T10:13:01.398Z,9088
2017-04-13T10:13:50.458Z,8992
2017-04-13T10:14:39.468Z,9156
2017-04-13T10:15:33.496Z,9284
2017-04-13T10:16:22.520Z,9256
2017-04-13T10:17:22.584Z,9868
2017-04-13T10:18:17.627Z,11296
2017-04-13T10:19:06.682Z,13044
2017-04-13T10:19:54.647Z,14176
2017-04-13T10:20:43.783Z,14556
2017-04-13T10:21:32.764Z,14264
2017-04-13T10:22:26.777Z,13736
2017-04-13T10:23:14.929Z,14232
2017-04-13T10:24:03.916Z,15664
2017-04-13T10:24:57.999Z,18720
2017-04-13T10:25:46.997Z,20192
2017-04-13T10:26:35.125Z,21696
2017-04-13T10:27:29.110Z,24128
2017-04-13T10:28:23.223Z,26112
2017-04-13T10:29:17.217Z,26848
2017-04-13T10:30:11.318Z,27488
2017-04-13T10:31:05.292Z,27616
2017-04-13T10:31:53.324Z,28896
2017-04-13T10:32:47.588Z,29696
2017-04-13T10:33:41.399Z,29376
2017-04-13T10:34:36.488Z,27296
2017-04-13T10:35:25.507Z,24128
2017-04-13T10:36:19.556Z,21664
2017-04-13T10:37:14.595Z,21344
2017-04-13T10:38:08.622Z,21632
2017-04-13T10:39:02.678Z,23584
2017-04-13T10:39:56.696Z,24384
2017-04-13T10:40:51.746Z,25536
2017-04-13T10:41:45.795Z,26496
2017-04-13T10:42:39.780Z,25472
2017-04-13T10:43:33.850Z,23360
2017-04-13T10:44:34.918Z,19040
2017-04-13T10:45:34.965Z,15016
2017-04-13T10:46:23.998Z,13488
2017-04-13T10:47:12.040Z,12824
2017-04-13T10:48:07.124Z,12364
2017-04-13T10:49:01.086Z,12196
2017-04-13T10:49:55.123Z,11372
2017-04-13T10:50:49.168Z,11276
2017-04-13T10:51:37.265Z,11796
2017-04-13T10:52:31.331Z,13176
2017-04-13T10:53:25.275Z,16608
2017-04-13T10:54:25.411Z,21184
2017-04-13T10:55:19.379Z,25728
2017-04-13T10:56:14.501Z,29952
2017-04-13T10:57:08.518Z,33184
2017-04-13T10:57:57.526Z,35648
2017-04-13T10:58:57.556Z,37440
2017-04-13T10:59:45.600Z,39200
2017-04-13T11:00:33.670Z,40480
2017-04-13T11:01:28.693Z,39744
2017-04-13T11:02:17.796Z,36864
2017-04-13T11:03:06.750Z,31104
2017-04-13T11:04:00.805Z,26048
2017-04-13T11:04:50.452Z,22400
2017-04-13T11:05:38.959Z,19072
2017-04-13T11:06:28.009Z,17024
2017-04-13T11:07:22.029Z,15448
2017-04-13T11:08:11.091Z,11576
2017-04-13T11:08:59.124Z,8140
2017-04-13T11:09:53.462Z,7516
2017-04-13T11:10:42.240Z,8080
2017-04-13T11:11:30.221Z,8752
2017-04-13T11:12:18.324Z,9220
2017-04-13T11:13:07.348Z,9772
2017-04-13T11:14:02.538Z,10800
2017-04-13T11:14:56.436Z,11804
2017-04-13T11:15:45.528Z,12868
2017-04-13T11:16:39.553Z,14100
2017-04-13T11:17:33.568Z,14984
2017-04-13T11:18:22.601Z,15752
2017-04-13T11:19:11.624Z,16448
2017-04-13T11:20:05.654Z,17600
2017-04-13T11:20:54.712Z,18624
2017-04-13T11:21:42.776Z,19264
2017-04-13T11:22:36.818Z,19520
2017-04-13T11:23:24.803Z,20128
2017-04-13T11:24:18.916Z,21056
2017-04-13T11:25:07.921Z,21536
2017-04-13T11:25:56.975Z,22336
2017-04-13T11:26:52.138Z,23424
2017-04-13T11:27:46.086Z,25056
2017-04-13T11:28:35.109Z,26752
2017-04-13T11:29:29.182Z,28832
2017-04-13T11:30:18.172Z,29280
2017-04-13T11:31:07.236Z,28960
2017-04-13T11:31:55.246Z,27904
2017-04-13T11:32:44.365Z,25792
2017-04-13T11:33:32.394Z,24192
2017-04-13T11:34:21.429Z,23104
2017-04-13T11:35:15.459Z,21824
2017-04-13T11:36:09.473Z,20544
2017-04-13T11:36:57.482Z,20224
2017-04-13T11:37:45.619Z,19936
2017-04-13T11:38:39.641Z,20640
2017-04-13T11:39:33.671Z,21632
2017-04-13T11:40:23.603Z,22240
2017-04-13T11:41:16.770Z,22528
2017-04-13T11:42:10.793Z,22464
2017-04-13T11:42:58.783Z,22016
2017-04-13T11:43:52.907Z,21344
2017-04-13T11:44:46.899Z,20736
2017-04-13T11:45:41.228Z,20480
2017-04-13T11:46:35.987Z,20224
2017-04-13T11:47:31.078Z,20320
2017-04-13T11:48:19.074Z,21216
2017-04-13T11:49:19.091Z,23264
2017-04-13T11:50:08.178Z,24608